createdAt,value
2018-09-13T00:01:59.473Z,10.10
2018-09-13T00:04:27.576Z,10.57
2018-09-13T00:06:55.638Z,10.30
2018-09-13T00:09:23.706Z,10.00
2018-09-13T00:11:51.797Z,10.00
2018-09-13T00:14:19.878Z,10.43
2018-09-13T00:16:47.949Z,9.70
2018-09-13T00:19:16.037Z,11.07
2018-09-13T00:21:44.117Z,10.17
2018-09-13T00:24:12.223Z,9.20
2018-09-13T00:26:40.299Z,8.20
2018-09-13T00:29:08.362Z,8.93
2018-09-13T00:31:36.434Z,8.93
2018-09-13T00:34:04.510Z,8.63
2018-09-13T00:36:32.590Z,8.23
2018-09-13T00:39:00.834Z,8.53
2018-09-13T00:41:28.971Z,8.17
2018-09-13T00:43:57.043Z,7.53
2018-09-13T00:46:25.189Z,8.33
2018-09-13T00:48:53.278Z,6.87
2018-09-13T00:51:21.342Z,7.00
2018-09-13T00:53:49.382Z,8.13
2018-09-13T00:56:17.519Z,8.17
2018-09-13T00:58:45.594Z,7.07
2018-09-13T01:01:13.685Z,7.03
2018-09-13T01:03:41.757Z,6.97
2018-09-13T01:06:09.842Z,7.40
2018-09-13T01:08:37.892Z,9.33
2018-09-13T01:11:06.348Z,8.27
2018-09-13T01:13:34.426Z,6.47
2018-09-13T01:16:02.521Z,8.13
2018-09-13T01:18:30.610Z,7.20
2018-09-13T01:20:58.690Z,7.27
2018-09-13T01:23:26.806Z,6.53
2018-09-13T01:25:54.901Z,8.47
2018-09-13T01:28:22.986Z,7.20
2018-09-13T01:30:51.098Z,6.83
2018-09-13T01:33:19.332Z,7.30
2018-09-13T01:35:47.406Z,6.83
2018-09-13T01:38:15.494Z,7.20
2018-09-13T01:40:43.622Z,6.80
2018-09-13T01:43:11.731Z,6.20
2018-09-13T01:45:39.820Z,7.37
2018-09-13T01:48:07.893Z,7.07
2018-09-13T01:50:35.970Z,6.47
2018-09-13T01:53:04.062Z,6.17
2018-09-13T01:55:32.169Z,6.83
2018-09-13T01:58:00.321Z,6.83
2018-09-13T02:00:28.374Z,7.30
2018-09-13T02:02:56.430Z,6.53
2018-09-13T02:05:24.501Z,7.93
2018-09-13T02:07:53.167Z,6.40
2018-09-13T02:10:21.217Z,7.47
2018-09-13T02:12:49.294Z,8.60
2018-09-13T02:15:17.411Z,6.50
2018-09-13T02:17:46.291Z,6.57
2018-09-13T02:20:14.347Z,6.53
2018-09-13T02:22:42.426Z,6.07
2018-09-13T02:25:10.514Z,6.37
2018-09-13T02:27:38.638Z,8.93
2018-09-13T02:30:06.712Z,6.60
2018-09-13T02:32:34.790Z,6.43
2018-09-13T02:35:02.858Z,7.07
2018-09-13T02:40:05.402Z,6.67
2018-09-13T02:42:33.510Z,6.97
2018-09-13T02:45:01.602Z,7.10
2018-09-13T02:47:29.657Z,9.03
2018-09-13T02:49:57.734Z,7.73
2018-09-13T02:52:25.843Z,7.47
2018-09-13T02:54:53.916Z,8.03
2018-09-13T02:57:22.046Z,8.77
2018-09-13T02:59:50.106Z,7.80
2018-09-13T03:02:18.186Z,7.27
2018-09-13T03:04:46.258Z,8.53
2018-09-13T03:07:14.330Z,8.90
2018-09-13T03:09:42.402Z,8.77
2018-09-13T03:12:11.018Z,7.53
2018-09-13T03:14:39.074Z,7.07
2018-09-13T03:17:07.133Z,7.60
2018-09-13T03:19:35.213Z,8.50
2018-09-13T03:22:03.258Z,8.57
2018-09-13T03:24:31.339Z,8.77
2018-09-13T03:26:59.468Z,7.47
2018-09-13T03:29:27.513Z,7.53
2018-09-13T03:31:55.588Z,7.10
2018-09-13T03:34:23.665Z,7.40
2018-09-13T03:36:51.713Z,7.47
2018-09-13T03:39:19.794Z,8.13
2018-09-13T03:41:47.901Z,8.40
2018-09-13T03:44:15.927Z,7.27
2018-09-13T03:46:43.986Z,8.10
2018-09-13T03:49:12.078Z,7.13
2018-09-13T03:51:40.139Z,7.60
2018-09-13T03:54:08.217Z,7.47
2018-09-13T03:56:36.270Z,7.97
2018-09-13T03:59:04.357Z,8.70
2018-09-13T04:01:32.425Z,7.50
2018-09-13T04:04:00.481Z,6.93
2018-09-13T04:06:28.550Z,10.37
2018-09-13T04:08:56.639Z,9.50
2018-09-13T04:11:24.722Z,11.03
2018-09-13T04:13:52.790Z,10.70
2018-09-13T04:16:21.078Z,10.43
2018-09-13T04:18:49.438Z,11.50
2018-09-13T04:21:17.474Z,14.53
2018-09-13T04:23:45.554Z,13.53
2018-09-13T04:26:13.657Z,11.90
2018-09-13T04:28:41.717Z,14.10
2018-09-13T04:31:09.790Z,13.30
2018-09-13T04:33:37.835Z,15.03
2018-09-13T04:36:06.191Z,13.70
2018-09-13T04:38:34.239Z,15.93
2018-09-13T04:41:02.318Z,15.70
2018-09-13T04:43:30.442Z,16.43
2018-09-13T04:45:58.517Z,16.40
2018-09-13T04:48:26.582Z,23.67
2018-09-13T04:50:54.647Z,13.53
2018-09-13T04:53:22.706Z,15.60
2018-09-13T04:55:50.753Z,17.50
2018-09-13T04:58:18.829Z,15.63
2018-09-13T05:00:46.898Z,16.13
2018-09-13T05:03:14.999Z,17.17
2018-09-13T05:05:43.072Z,15.70
2018-09-13T05:08:11.158Z,77.87
2018-09-13T05:11:42.558Z,28.43
2018-09-13T05:14:10.852Z,16.10
2018-09-13T05:16:38.920Z,14.47
2018-09-13T05:19:07.014Z,14.63
2018-09-13T05:21:35.133Z,16.83
2018-09-13T05:24:03.369Z,14.47
2018-09-13T05:26:31.426Z,16.83
2018-09-13T05:28:59.480Z,16.13
2018-09-13T05:31:27.633Z,18.13
2018-09-13T05:33:55.685Z,22.20
2018-09-13T05:36:23.771Z,16.57
2018-09-13T05:38:51.916Z,18.30
2018-09-13T05:41:19.978Z,16.90
2018-09-13T05:43:48.050Z,16.83
2018-09-13T05:46:16.171Z,18.63
2018-09-13T05:48:44.270Z,19.80
2018-09-13T05:51:12.427Z,18.40
2018-09-13T05:53:40.491Z,20.30
2018-09-13T05:56:08.645Z,20.83
2018-09-13T05:58:36.757Z,18.27
2018-09-13T06:01:04.834Z,64.50
2018-09-13T06:03:32.930Z,20.37
2018-09-13T06:06:00.995Z,22.50
2018-09-13T06:08:29.087Z,18.33
2018-09-13T06:10:57.130Z,19.40
2018-09-13T06:13:25.282Z,18.43
2018-09-13T06:15:53.301Z,20.50
2018-09-13T06:18:21.353Z,20.67
2018-09-13T06:20:49.574Z,21.40
2018-09-13T06:23:17.627Z,21.30
2018-09-13T06:25:45.681Z,21.90
2018-09-13T06:28:13.843Z,20.60
2018-09-13T06:30:41.933Z,20.70
2018-09-13T06:33:09.985Z,20.30
2018-09-13T06:35:38.046Z,21.43
2018-09-13T06:38:06.095Z,21.53
2018-09-13T06:40:34.144Z,19.83
2018-09-13T06:43:02.246Z,23.90
2018-09-13T06:45:30.290Z,20.63
2018-09-13T06:47:58.354Z,20.00
2018-09-13T06:50:33.226Z,19.13
2018-09-13T06:53:01.278Z,24.90
2018-09-13T06:55:29.362Z,21.57
2018-09-13T06:57:57.430Z,19.93
2018-09-13T07:00:25.504Z,20.37
2018-09-13T07:02:53.564Z,20.33
2018-09-13T07:05:21.629Z,20.17
2018-09-13T07:07:49.710Z,22.53
2018-09-13T07:10:17.785Z,21.20
2018-09-13T07:12:45.834Z,21.33
2018-09-13T07:15:13.942Z,22.57
2018-09-13T07:17:42.017Z,23.97
2018-09-13T07:20:10.065Z,25.37
2018-09-13T07:22:38.164Z,24.57
2018-09-13T07:25:06.250Z,23.80
2018-09-13T07:27:34.319Z,26.57
2018-09-13T07:30:02.594Z,23.53
2018-09-13T07:32:30.642Z,23.47
2018-09-13T07:34:58.770Z,21.53
2018-09-13T07:37:27.094Z,21.37
2018-09-13T07:39:55.155Z,22.90
2018-09-13T07:42:23.236Z,23.13
2018-09-13T07:44:51.306Z,19.83
2018-09-13T07:47:19.376Z,21.83
2018-09-13T07:49:47.500Z,23.60
2018-09-13T07:52:15.478Z,22.27
2018-09-13T07:54:43.546Z,23.40
2018-09-13T07:57:11.687Z,23.07
2018-09-13T07:59:39.754Z,22.63
2018-09-13T08:02:07.822Z,22.83
2018-09-13T08:04:35.884Z,23.00
2018-09-13T08:07:03.936Z,21.43
2018-09-13T08:09:32.025Z,23.00
2018-09-13T08:12:00.180Z,24.27
2018-09-13T08:14:28.129Z,23.13
2018-09-13T08:16:56.866Z,22.83
2018-09-13T08:19:24.925Z,22.87
2018-09-13T08:21:52.999Z,23.70
2018-09-13T08:24:21.076Z,23.17
2018-09-13T08:26:49.126Z,23.00
2018-09-13T08:39:09.022Z,21.25
2018-09-13T08:41:37.078Z,21.50
2018-09-13T08:44:05.138Z,19.80
2018-09-13T09:01:17.934Z,16.00
2018-09-13T09:06:13.392Z,18.20
2018-09-13T09:13:36.252Z,17.92
2018-09-13T09:16:04.314Z,17.00
2018-09-13T09:18:32.434Z,16.60
2018-09-13T09:21:00.546Z,18.83
2018-09-13T09:23:29.177Z,16.93
2018-09-13T09:28:24.802Z,16.17
2018-09-13T09:30:52.879Z,18.73
2018-09-13T09:33:20.935Z,17.12
2018-09-13T09:35:49.078Z,16.77
2018-09-13T09:38:17.154Z,16.83
2018-09-13T09:40:45.268Z,15.93
2018-09-13T09:43:13.442Z,18.70
2018-09-13T09:45:41.599Z,17.90
2018-09-13T09:48:09.720Z,18.40
2018-09-13T09:53:05.526Z,18.00
2018-09-13T09:55:33.601Z,16.17
2018-09-13T09:58:01.755Z,17.17
2018-09-13T10:00:35.322Z,18.93
2018-09-13T10:03:03.469Z,16.10
2018-09-13T10:05:31.501Z,16.80
2018-09-13T10:07:59.590Z,15.83
2018-09-13T10:10:27.673Z,16.55
2018-09-13T10:12:55.755Z,16.85
2018-09-13T10:15:29.198Z,15.80
2018-09-13T10:20:35.829Z,16.62
2018-09-13T10:23:09.347Z,15.03
2018-09-13T10:25:42.966Z,17.48
2018-09-13T10:28:16.454Z,14.50
2018-09-13T10:38:28.625Z,13.30
2018-09-13T10:48:35.337Z,11.87
2018-09-13T10:51:06.269Z,19.17
2018-09-13T10:53:43.674Z,12.98
2018-09-13T11:06:01.354Z,16.73
2018-09-13T11:25:46.318Z,15.40
2018-09-13T11:30:41.792Z,13.75
2018-09-13T11:33:09.851Z,11.88
2018-09-13T11:35:37.923Z,12.85
2018-09-13T11:40:33.539Z,10.90
2018-09-13T11:43:01.463Z,14.00
2018-09-13T12:29:42.859Z,7.80
2018-09-13T12:34:38.374Z,9.03
2018-09-13T13:13:58.087Z,5.70
2018-09-13T13:53:17.458Z,5.20
2018-09-13T14:12:57.611Z,6.05
2018-09-13T14:25:15.336Z,6.17
2018-09-13T14:27:43.398Z,8.55
2018-09-13T14:30:11.450Z,6.72
2018-09-13T14:49:51.595Z,9.58
2018-09-13T14:54:47.094Z,9.60
2018-09-13T14:57:15.225Z,7.97
2018-09-13T14:59:43.251Z,8.80
2018-09-13T15:04:38.754Z,8.27
2018-09-13T15:09:34.253Z,9.53
2018-09-13T15:38:00.871Z,13.50
2018-09-13T15:40:28.929Z,12.80
2018-09-13T15:45:24.403Z,15.30
2018-09-13T15:47:52.447Z,17.20
2018-09-13T16:17:22.405Z,27.03
2018-09-13T16:32:07.893Z,20.03
2018-09-13T16:34:35.967Z,20.05
2018-09-13T16:37:07.891Z,13.47
2018-09-13T16:39:41.498Z,10.90
2018-09-13T16:52:23.529Z,12.30
2018-09-13T16:54:51.614Z,11.60
2018-09-13T17:04:41.873Z,12.67
2018-09-13T17:21:54.354Z,11.70
2018-09-13T17:24:22.401Z,12.10
2018-09-13T17:36:40.091Z,13.50
2018-09-13T17:48:58.802Z,9.80
2018-09-13T17:58:55.754Z,9.83
2018-09-13T18:03:51.219Z,14.53
2018-09-13T18:08:46.693Z,12.00
2018-09-13T18:11:14.755Z,12.03
2018-09-13T18:13:42.779Z,11.27
2018-09-13T18:16:10.850Z,13.13
2018-09-13T18:18:39.017Z,13.47
2018-09-13T18:21:07.092Z,13.53
2018-09-13T18:23:35.219Z,14.07
2018-09-13T18:26:03.216Z,14.50
2018-09-13T18:28:31.270Z,13.33
2018-09-13T18:30:59.342Z,14.97
2018-09-13T18:33:27.389Z,15.40
2018-09-13T18:38:22.862Z,15.93
2018-09-13T18:40:50.956Z,17.43
2018-09-13T18:43:19.013Z,19.43
2018-09-13T18:45:47.095Z,17.17
2018-09-13T18:48:15.166Z,16.77
2018-09-13T18:50:43.242Z,16.50
2018-09-13T18:53:11.314Z,16.90
2018-09-13T18:55:39.386Z,15.40
2018-09-13T18:58:07.434Z,18.83
2018-09-13T19:00:35.483Z,21.90
2018-09-13T19:03:03.565Z,22.23
2018-09-13T19:05:31.621Z,19.63
2018-09-13T19:07:59.687Z,21.10
2018-09-13T19:10:27.710Z,22.00
2018-09-13T19:12:55.758Z,21.27
2018-09-13T19:15:23.846Z,23.00
2018-09-13T19:17:51.922Z,20.40
2018-09-13T19:20:19.993Z,21.03
2018-09-13T19:22:48.047Z,20.60
2018-09-13T19:25:16.129Z,20.97
2018-09-13T19:27:44.192Z,23.53
2018-09-13T19:30:12.244Z,22.00
2018-09-13T19:32:40.345Z,27.00
2018-09-13T19:35:08.394Z,29.33
2018-09-13T19:37:36.446Z,26.17
2018-09-13T19:40:05.130Z,31.87
2018-09-13T19:42:33.171Z,29.60
2018-09-13T19:45:01.230Z,29.73
2018-09-13T19:47:29.290Z,29.50
2018-09-13T19:49:57.334Z,26.90
2018-09-13T19:52:25.369Z,28.27
2018-09-13T19:54:53.449Z,29.30
2018-09-13T19:57:21.494Z,28.47
2018-09-13T19:59:49.538Z,35.23
2018-09-13T20:02:17.586Z,35.40
2018-09-13T20:04:45.633Z,33.97
2018-09-13T20:07:13.667Z,34.10
2018-09-13T20:09:41.738Z,34.00
2018-09-13T20:12:09.794Z,30.93
2018-09-13T20:14:37.848Z,32.90
2018-09-13T20:17:05.900Z,38.13
2018-09-13T20:19:33.954Z,29.17
2018-09-13T20:22:02.006Z,32.57
2018-09-13T20:24:30.258Z,34.67
2018-09-13T20:26:58.241Z,36.97
2018-09-13T20:29:26.431Z,35.60
2018-09-13T20:31:54.574Z,36.27
2018-09-13T20:34:22.728Z,40.37
2018-09-13T20:36:50.922Z,32.83
2018-09-13T20:39:19.039Z,36.90
2018-09-13T20:41:47.750Z,39.77
2018-09-13T20:44:15.817Z,36.23
2018-09-13T20:46:44.022Z,39.63
2018-09-13T20:49:12.090Z,43.60
2018-09-13T20:51:40.259Z,44.23
2018-09-13T20:54:08.430Z,51.73
2018-09-13T20:56:36.517Z,41.47
2018-09-13T20:59:04.595Z,37.80
2018-09-13T21:01:32.740Z,35.83
2018-09-13T21:04:00.858Z,32.17
2018-09-13T21:06:28.962Z,31.27
2018-09-13T21:08:57.026Z,27.40
2018-09-13T21:11:25.266Z,25.27
2018-09-13T21:13:53.386Z,22.53
2018-09-13T21:16:21.437Z,21.07
2018-09-13T21:18:49.531Z,20.57
2018-09-13T21:21:17.722Z,23.20
2018-09-13T21:23:45.790Z,24.40
2018-09-13T21:26:13.870Z,24.83
2018-09-13T21:28:41.925Z,25.63
2018-09-13T21:31:10.006Z,23.83
2018-09-13T21:33:38.201Z,33.07
2018-09-13T21:36:06.271Z,34.97
2018-09-13T21:38:34.317Z,34.60
2018-09-13T21:41:02.395Z,32.00
2018-09-13T21:43:30.498Z,37.93
2018-09-13T21:45:58.557Z,43.07
2018-09-13T21:48:26.610Z,43.70
2018-09-13T21:50:54.688Z,39.00
2018-09-13T21:53:22.725Z,40.03
2018-09-13T21:55:50.806Z,41.73
2018-09-13T21:58:18.859Z,36.70
2018-09-13T22:00:46.910Z,34.40
2018-09-13T22:03:15.050Z,36.40
2018-09-13T22:05:43.133Z,36.83
2018-09-13T22:08:11.194Z,39.73
2018-09-13T22:10:39.234Z,35.80
2018-09-13T22:13:07.338Z,38.70
2018-09-13T22:15:35.393Z,41.17
2018-09-13T22:18:03.442Z,45.30
2018-09-13T22:20:31.537Z,42.53
2018-09-13T22:22:59.599Z,53.00
2018-09-13T22:25:27.658Z,53.20
2018-09-13T22:27:55.730Z,53.00
2018-09-13T22:30:23.833Z,59.80
2018-09-13T22:32:51.889Z,57.70
2018-09-13T22:35:19.962Z,59.93
2018-09-13T22:37:48.022Z,64.60
2018-09-13T22:40:16.094Z,70.47
2018-09-13T22:42:44.146Z,78.40
2018-09-13T22:45:12.209Z,98.30
2018-09-13T22:47:40.286Z,76.43
2018-09-13T22:50:08.333Z,75.13
2018-09-13T22:52:36.386Z,80.30
2018-09-13T22:55:04.435Z,76.47
2018-09-13T22:57:32.501Z,74.53
2018-09-13T23:00:00.581Z,77.80
2018-09-13T23:02:28.622Z,78.30
2018-09-13T23:04:56.674Z,94.93
2018-09-13T23:07:24.794Z,91.93
2018-09-13T23:09:52.873Z,78.77
2018-09-13T23:12:20.938Z,89.60
2018-09-13T23:14:49.013Z,86.33
2018-09-13T23:17:17.078Z,90.23
2018-09-13T23:19:45.130Z,111.47
2018-09-13T23:22:13.188Z,110.83
2018-09-13T23:24:41.254Z,90.40
2018-09-13T23:27:10.042Z,83.10
2018-09-13T23:29:38.390Z,92.60
2018-09-13T23:32:06.650Z,97.83
2018-09-13T23:34:34.719Z,91.40
2018-09-13T23:37:02.774Z,87.77
2018-09-13T23:39:31.120Z,79.83
2018-09-13T23:42:05.644Z,90.97
2018-09-13T23:44:33.723Z,87.97
2018-09-13T23:47:01.763Z,93.57
2018-09-13T23:49:29.798Z,87.27
2018-09-13T23:51:57.861Z,108.50
2018-09-13T23:54:25.913Z,112.43
2018-09-13T23:56:53.986Z,88.77
2018-09-13T23:59:22.045Z,105.10
